Time;durP1;ratioP1;P1;durP2;ratioP2;P2;SDS_P1;SDS_P2;PMS_P1;PMS_P2;Temp;Humidity;BMP_temperature;BMP_pressure;BME280_temperature;BME280_humidity;BME280_pressure;Samples;Min_cycle;Max_cycle;Signal;HPM_P1;HPM_P2
2022/12/13 00:01:15;;;;;;;28.65;16.88;;;;;;;-3.67;100.00;101146.84;5143783;29;20031;-70
2022/12/13 00:03:47;;;;;;;24.02;16.00;;;;;;;-3.68;100.00;101143.41;5147096;29;20694;-70
2022/12/13 00:06:18;;;;;;;26.05;15.75;;;;;;;-3.70;100.00;101145.16;5151595;29;20027;-70
2022/12/13 00:08:50;;;;;;;24.88;15.57;;;;;;;-3.69;100.00;101144.28;5147471;29;20522;-69
2022/12/13 00:11:21;;;;;;;25.25;15.57;;;;;;;-3.72;100.00;101146.06;5135415;29;20023;-69
2022/12/13 00:13:53;;;;;;;23.33;14.38;;;;;;;-3.71;100.00;101142.66;5151642;29;20122;-70
2022/12/13 00:16:25;;;;;;;29.23;16.00;;;;;;;-3.77;100.00;101135.94;5148883;29;20062;-70
2022/12/13 00:18:58;;;;;;;24.25;15.60;;;;;;;-3.80;100.00;101130.88;5143423;29;20027;-68
2022/12/13 00:21:32;;;;;;;22.58;14.73;;;;;;;-3.83;100.00;101133.47;5151215;29;20038;-68
2022/12/13 00:24:05;;;;;;;27.45;16.10;;;;;;;-3.83;100.00;101133.47;5150942;29;20118;-68
2022/12/13 00:26:36;;;;;;;25.10;15.35;;;;;;;-3.84;100.00;101136.09;5139347;28;20035;-68
2022/12/13 00:29:08;;;;;;;27.30;15.32;;;;;;;-3.89;100.00;101127.66;5120740;29;20036;-71
2022/12/13 00:31:40;;;;;;;24.83;15.02;;;;;;;-3.88;100.00;101137.03;5128228;29;20027;-71
2022/12/13 00:34:11;;;;;;;25.83;15.57;;;;;;;-3.93;100.00;101119.22;5147818;29;20015;-71
2022/12/13 00:36:42;;;;;;;22.65;15.77;;;;;;;-3.82;100.00;101134.34;5144356;28;20052;-71
2022/12/13 00:39:15;;;;;;;25.20;14.93;;;;;;;-3.80;100.00;101133.44;5154430;29;20086;-71
2022/12/13 00:41:46;;;;;;;24.55;14.65;;;;;;;-3.84;100.00;101136.09;5154142;29;20396;-71
2022/12/13 00:44:18;;;;;;;22.77;14.43;;;;;;;-3.87;100.00;101126.75;5145940;29;20036;-71
2022/12/13 00:46:50;;;;;;;23.55;15.23;;;;;;;-3.93;100.00;101129.44;5155834;28;20052;-71
2022/12/13 00:49:22;;;;;;;23.52;14.68;;;;;;;-3.95;100.00;101131.19;5152529;29;20042;-71
2022/12/13 00:51:53;;;;;;;24.25;15.02;;;;;;;-3.92;100.00;101131.13;5153642;29;20038;-71
2022/12/13 00:54:25;;;;;;;24.10;14.88;;;;;;;-3.88;100.00;101127.63;5149692;29;20019;-68
2022/12/13 00:56:56;;;;;;;23.02;14.20;;;;;;;-3.91;100.00;101127.69;5152439;28;20055;-68
2022/12/13 00:59:27;;;;;;;22.02;13.75;;;;;;;-3.92;100.00;101124.28;5153637;29;20533;-68
2022/12/13 01:01:59;;;;;;;25.08;14.40;;;;;;;-3.94;100.00;101115.81;5155703;29;20479;-68
2022/12/13 01:04:30;;;;;;;23.33;14.55;;;;;;;-3.97;100.00;101120.16;5153230;29;20058;-69
2022/12/13 01:07:01;;;;;;;22.98;14.15;;;;;;;-3.96;100.00;101121.81;5151529;28;20039;-69
2022/12/13 01:09:33;;;;;;;21.98;14.30;;;;;;;-4.01;100.00;101129.59;5150528;29;20031;-69
2022/12/13 01:12:05;;;;;;;22.25;13.82;;;;;;;-4.02;100.00;101119.38;5148181;29;20088;-69
2022/12/13 01:14:38;;;;;;;22.67;13.75;;;;;;;-4.06;100.00;101117.75;5154540;29;20118;-69
2022/12/13 01:17:10;;;;;;;21.33;13.35;;;;;;;-4.09;100.00;101116.13;5149602;28;20035;-69
2022/12/13 01:19:41;;;;;;;21.33;13.73;;;;;;;-4.13;100.00;101111.06;5154252;29;20029;-69
2022/12/13 01:22:12;;;;;;;22.38;13.38;;;;;;;-4.12;100.00;101111.06;5154068;29;20536;-69
2022/12/13 01:24:44;;;;;;;22.25;13.18;;;;;;;-4.12;100.00;101112.78;5154065;29;20461;-69
2022/12/13 01:27:15;;;;;;;23.58;13.05;;;;;;;-4.10;100.00;101108.47;5152134;28;20456;-69
2022/12/13 01:29:46;;;;;;;20.55;12.98;;;;;;;-4.06;100.00;101104.97;5153219;29;20036;-69
2022/12/13 01:32:17;;;;;;;21.30;13.25;;;;;;;-4.09;100.00;101105.03;5155107;29;20110;-69
2022/12/13 01:34:49;;;;;;;22.60;13.45;;;;;;;-4.08;100.00;101115.25;5153740;29;20027;-69
2022/12/13 01:37:20;;;;;;;18.95;12.38;;;;;;;-4.08;100.00;101112.69;5153672;28;20035;-69
2022/12/13 01:39:51;;;;;;;22.48;14.25;;;;;;;-4.06;100.00;101115.19;5151793;29;20043;-69
2022/12/13 01:42:23;;;;;;;26.17;13.85;;;;;;;-4.06;100.00;101121.16;5152044;29;20027;-69
2022/12/13 01:44:54;;;;;;;22.42;13.88;;;;;;;-4.09;100.00;101122.94;5137542;29;20031;-69
2022/12/13 01:47:37;;;;;;;24.63;14.57;;;;;;;-4.05;100.00;101125.41;5152979;28;20031;-69
2022/12/13 01:50:14;;;;;;;20.65;13.15;;;;;;;-4.10;100.00;101119.53;5152692;29;20647;-69
2022/12/13 01:52:46;;;;;;;20.58;13.15;;;;;;;-4.21;100.00;101126.56;5154874;29;20024;-69
2022/12/13 01:55:21;;;;;;;20.92;13.35;;;;;;;-4.20;100.00;101129.13;5153728;28;20020;-69
2022/12/13 01:57:56;;;;;;;21.38;13.18;;;;;;;-4.15;100.00;101126.47;5151880;29;20457;-69
2022/12/13 02:00:28;;;;;;;27.10;14.07;;;;;;;-4.25;100.00;101123.22;5152546;29;20505;-69
2022/12/13 02:03:01;;;;;;;19.58;13.32;;;;;;;-4.25;100.00;101127.50;5153978;29;20038;-69
2022/12/13 02:05:50;;;;;;;19.10;12.52;;;;;;;-4.18;100.00;101121.41;5152705;28;20027;-69
2022/12/13 02:08:23;;;;;;;20.55;12.95;;;;;;;-4.27;100.00;101121.59;5143619;28;20138;-69
2022/12/13 02:10:54;;;;;;;17.88;10.73;;;;;;;-4.19;100.00;101117.16;5153284;29;20119;-69
2022/12/13 02:13:26;;;;;;;22.25;13.68;;;;;;;-4.32;100.00;101113.97;5152616;29;20593;-69
2022/12/13 02:16:11;;;;;;;21.58;13.35;;;;;;;-4.20;100.00;101110.38;5153025;28;20030;-69
2022/12/13 02:19:07;;;;;;;22.48;13.50;;;;;;;-4.12;100.00;101115.34;5149964;29;20106;-69
2022/12/13 02:22:22;;;;;;;20.10;13.23;;;;;;;-4.09;100.00;101113.56;5152764;29;20154;-69
2022/12/13 02:25:12;;;;;;;17.92;13.10;;;;;;;-4.10;100.00;101121.25;5153630;29;20030;-69
2022/12/13 02:28:11;;;;;;;20.88;13.65;;;;;;;-4.12;100.00;101118.75;5153302;28;20552;-69
2022/12/13 02:30:50;;;;;;;24.15;12.80;;;;;;;-4.30;100.00;101117.38;5150655;29;20833;-69
2022/12/13 02:33:36;;;;;;;22.58;13.75;;;;;;;-4.21;100.00;101121.47;5153297;29;20408;-69
2022/12/13 02:36:20;;;;;;;22.08;13.63;;;;;;;-4.18;100.00;101122.25;5145310;28;20457;-69
2022/12/13 02:39:01;;;;;;;21.08;13.80;;;;;;;-4.28;100.00;101118.19;5153346;29;20038;-69
2022/12/13 02:41:47;;;;;;;24.25;13.65;;;;;;;-4.22;100.00;101105.28;5151262;29;20042;-70
2022/12/13 02:44:25;;;;;;;24.20;14.77;;;;;;;-4.23;100.00;101113.00;5151599;29;20039;-69
2022/12/13 02:47:12;;;;;;;28.10;14.40;;;;;;;-4.18;100.00;101098.38;5136413;29;20396;-69
2022/12/13 02:49:47;;;;;;;23.65;13.77;;;;;;;-4.25;100.00;101101.94;5149426;29;20126;-69
2022/12/13 02:52:23;;;;;;;25.10;14.50;;;;;;;-4.31;100.00;101105.47;5151787;29;20138;-69
2022/12/13 02:54:56;;;;;;;24.85;13.40;;;;;;;-4.38;100.00;101100.50;5150461;29;20027;-69
2022/12/13 02:57:40;;;;;;;27.53;14.67;;;;;;;-4.28;100.00;101099.44;5152923;28;20073;-70
2022/12/13 03:00:19;;;;;;;28.92;14.75;;;;;;;-4.27;100.00;101093.47;5152647;28;20019;-69
2022/12/13 03:03:02;;;;;;;23.02;14.30;;;;;;;-4.18;100.00;101083.88;5145524;28;20115;-70
2022/12/13 03:06:30;;;;;;;25.58;15.07;;;;;;;-4.12;100.00;101085.47;5151788;28;20035;-70
2022/12/13 03:09:25;;;;;;;21.90;13.63;;;;;;;-4.10;100.00;101082.88;5151901;29;20039;-70
2022/12/13 03:15:28;;;;;;;22.90;14.38;;;;;;;-4.08;100.00;101081.97;5153868;28;20042;-70
2022/12/13 03:18:14;;;;;;;23.92;14.23;;;;;;;-4.08;100.00;101092.22;5151087;29;20027;-70
2022/12/13 03:20:52;;;;;;;24.48;15.18;;;;;;;-4.11;100.00;101092.28;5152093;29;20035;-71
2022/12/13 03:23:25;;;;;;;24.35;14.00;;;;;;;-4.20;100.00;101087.34;5153835;29;20058;-71
2022/12/13 03:26:03;;;;;;;24.30;13.95;;;;;;;-4.16;100.00;101087.25;5151879;28;20694;-70
2022/12/13 03:28:35;;;;;;;24.65;14.80;;;;;;;-4.23;100.00;101088.25;5151024;29;20039;-70
2022/12/13 03:31:07;;;;;;;28.20;14.73;;;;;;;-4.16;100.00;101092.38;5145179;28;20098;-70
2022/12/13 03:33:38;;;;;;;23.95;14.02;;;;;;;-4.20;100.00;101085.63;5144196;29;20027;-71
2022/12/13 03:36:10;;;;;;;25.60;14.90;;;;;;;-4.21;100.00;101096.72;5151012;28;20078;-71
2022/12/13 03:38:42;;;;;;;24.58;15.13;;;;;;;-4.19;100.00;101099.25;5153761;29;20601;-70
2022/12/13 03:41:16;;;;;;;25.92;14.38;;;;;;;-4.18;100.00;101088.16;5152412;29;20030;-70
2022/12/13 03:43:48;;;;;;;24.67;15.02;;;;;;;-4.18;100.00;101088.97;5150858;29;20465;-69
2022/12/13 03:46:19;;;;;;;25.10;14.75;;;;;;;-4.23;100.00;101078.00;5151676;28;20031;-70
2022/12/13 03:48:50;;;;;;;23.95;14.52;;;;;;;-4.23;100.00;101080.56;5152143;29;20023;-70
2022/12/13 03:51:21;;;;;;;25.73;15.77;;;;;;;-4.22;100.00;101081.41;5152086;29;20609;-72
2022/12/13 03:53:53;;;;;;;25.38;14.10;;;;;;;-4.28;100.00;101079.84;5150953;29;20943;-70
2022/12/13 03:56:25;;;;;;;22.80;14.57;;;;;;;-4.29;100.00;101077.28;5153485;28;20311;-71
2022/12/13 03:58:56;;;;;;;24.63;15.27;;;;;;;-4.34;100.00;101074.81;5144833;29;20031;-70
2022/12/13 04:01:27;;;;;;;25.23;15.43;;;;;;;-4.29;100.00;101080.69;5148641;29;20496;-71
2022/12/13 04:03:58;;;;;;;20.38;13.73;;;;;;;-4.32;100.00;101075.63;5152252;29;20575;-69
2022/12/13 04:06:30;;;;;;;25.15;16.13;;;;;;;-4.33;100.00;101066.28;5151847;28;20039;-70
2022/12/13 04:09:01;;;;;;;25.35;15.65;;;;;;;-4.31;100.00;101074.78;5152061;29;21089;-70
2022/12/13 04:14:22;;;;;;;23.35;14.40;;;;;;;-4.34;100.00;101068.88;5156341;29;20050;-69
2022/12/13 04:16:54;;;;;;;24.60;15.32;;;;;;;-4.28;100.00;101077.28;5149865;28;20047;-71
2022/12/13 04:19:25;;;;;;;26.33;15.70;;;;;;;-4.33;100.00;101061.16;5156694;29;20026;-70
2022/12/13 04:21:56;;;;;;;30.23;15.80;;;;;;;-4.29;100.00;101070.44;5156047;29;20027;-71
2022/12/13 04:24:28;;;;;;;24.60;14.50;;;;;;;-4.31;100.00;101061.16;5156719;29;21055;-70
2022/12/13 04:27:00;;;;;;;23.75;14.32;;;;;;;-4.22;100.00;101066.91;5147379;29;20035;-70
2022/12/13 04:29:31;;;;;;;25.88;15.45;;;;;;;-4.28;100.00;101064.47;5155481;29;20031;-71
2022/12/13 04:32:03;;;;;;;22.67;14.52;;;;;;;-4.21;100.00;101063.47;5155811;29;20444;-70
2022/12/13 04:34:34;;;;;;;24.17;14.75;;;;;;;-4.21;100.00;101065.19;5153571;29;20035;-70
2022/12/13 04:37:06;;;;;;;26.02;15.93;;;;;;;-4.19;100.00;101061.72;5156776;28;20559;-70
2022/12/13 04:39:37;;;;;;;26.20;14.25;;;;;;;-4.24;100.00;101061.00;5154605;29;20035;-71
2022/12/13 04:42:08;;;;;;;25.05;15.32;;;;;;;-4.23;100.00;101054.16;5156306;29;20035;-71
2022/12/13 04:44:40;;;;;;;22.67;15.10;;;;;;;-4.19;100.00;101061.72;5156344;29;20058;-69
2022/12/13 04:47:11;;;;;;;27.55;16.30;;;;;;;-4.17;100.00;101054.88;5156547;28;20022;-70
2022/12/13 04:49:42;;;;;;;26.33;15.80;;;;;;;-4.12;100.00;101053.94;5134823;29;20062;-70
2022/12/13 04:52:14;;;;;;;24.75;15.23;;;;;;;-4.13;100.00;101053.06;5154421;28;20038;-70
2022/12/13 04:54:45;;;;;;;26.08;15.70;;;;;;;-4.12;100.00;101052.22;5146928;29;20055;-70
2022/12/13 04:57:17;;;;;;;26.80;15.02;;;;;;;-4.17;100.00;101047.19;5138850;29;20600;-69
2022/12/13 04:59:48;;;;;;;22.73;14.57;;;;;;;-4.12;100.00;101048.81;5156946;29;20030;-69
2022/12/13 05:02:19;;;;;;;24.73;15.57;;;;;;;-4.17;100.00;101046.34;5154089;29;20412;-70
2022/12/13 05:04:51;;;;;;;28.50;16.48;;;;;;;-4.13;100.00;101047.94;5153819;29;20050;-69
2022/12/13 05:07:22;;;;;;;23.30;14.80;;;;;;;-4.10;100.00;101054.72;5152941;28;20027;-70
2022/12/13 05:09:54;;;;;;;24.15;15.05;;;;;;;-4.13;100.00;101050.50;5154992;29;20043;-70
2022/12/13 05:12:25;;;;;;;26.13;15.77;;;;;;;-4.16;100.00;101051.44;5155296;29;20034;-69
2022/12/13 05:14:56;;;;;;;27.63;15.38;;;;;;;-4.20;100.00;101046.44;5153307;29;20031;-70
2022/12/13 05:17:27;;;;;;;23.70;15.35;;;;;;;-4.19;100.00;101048.94;5153969;28;20038;-70
2022/12/13 05:19:59;;;;;;;23.52;15.90;;;;;;;-4.18;100.00;101037.81;5147088;29;20050;-69
2022/12/13 05:22:30;;;;;;;26.08;15.52;;;;;;;-4.19;100.00;101045.53;5142498;28;20035;-70
2022/12/13 05:25:01;;;;;;;27.23;15.98;;;;;;;-4.23;100.00;101039.66;5156231;29;20016;-68
2022/12/13 05:27:32;;;;;;;26.50;15.43;;;;;;;-4.22;100.00;101035.38;5154505;28;20038;-69
2022/12/13 05:30:04;;;;;;;25.77;15.80;;;;;;;-4.29;100.00;101032.09;5153970;29;20070;-69
2022/12/13 05:32:37;;;;;;;22.25;15.07;;;;;;;-4.27;100.00;101029.50;5153530;29;20058;-68
2022/12/13 05:35:08;;;;;;;28.25;16.38;;;;;;;-4.37;100.00;101010.94;5155105;29;20019;-70
2022/12/13 05:37:40;;;;;;;24.05;15.10;;;;;;;-4.32;100.00;101026.19;5152335;28;20440;-70
2022/12/13 05:40:11;;;;;;;23.35;15.57;;;;;;;-4.37;100.00;101028.00;5152458;29;20053;-70
2022/12/13 05:42:43;;;;;;;26.73;15.43;;;;;;;-4.34;100.00;101028.78;5155029;29;20046;-70
2022/12/13 05:45:16;;;;;;;24.27;16.67;;;;;;;-4.35;100.00;101027.13;5155084;29;20106;-69
2022/12/13 05:47:48;;;;;;;26.80;15.45;;;;;;;-4.41;100.00;101022.94;5145016;28;20496;-69
2022/12/13 05:50:19;;;;;;;23.48;15.32;;;;;;;-4.40;100.00;101023.78;5154180;29;20089;-69
2022/12/13 05:52:51;;;;;;;26.98;15.95;;;;;;;-4.44;100.00;101024.72;5153116;29;20023;-69
2022/12/13 05:55:22;;;;;;;26.20;16.13;;;;;;;-4.45;100.00;101020.50;5152531;28;20482;-69
2022/12/13 05:57:54;;;;;;;27.60;16.88;;;;;;;-4.45;100.00;101020.50;5154803;29;20041;-69
2022/12/13 06:00:25;;;;;;;25.83;15.32;;;;;;;-4.45;100.00;101018.78;5137663;29;20462;-69
2022/12/13 06:02:58;;;;;;;24.20;14.98;;;;;;;-4.40;100.00;101028.91;5153062;29;20030;-69
2022/12/13 06:05:30;;;;;;;26.63;15.30;;;;;;;-4.35;100.00;101031.38;5153255;28;20027;-69
2022/12/13 06:08:01;;;;;;;27.48;15.98;;;;;;;-4.37;100.00;101030.56;5154567;29;20411;-69
2022/12/13 06:10:33;;;;;;;25.67;16.10;;;;;;;-4.35;100.00;101031.38;5152498;29;20035;-69
2022/12/13 06:13:04;;;;;;;23.23;14.90;;;;;;;-4.38;100.00;101029.72;5152043;29;20380;-71
2022/12/13 06:15:37;;;;;;;25.60;15.75;;;;;;;-4.42;100.00;101028.09;5129701;28;20027;-69
2022/12/13 06:18:08;;;;;;;21.83;14.10;;;;;;;-4.44;100.00;101022.16;5152824;29;20034;-71
2022/12/13 06:20:39;;;;;;;23.67;15.10;;;;;;;-4.39;100.00;101038.28;5153206;29;20046;-70
2022/12/13 06:23:11;;;;;;;26.38;16.00;;;;;;;-4.55;100.00;101007.03;5154745;29;20493;-70
2022/12/13 06:25:42;;;;;;;25.70;15.57;;;;;;;-4.46;100.00;101026.50;5146146;28;20395;-70
2022/12/13 06:28:13;;;;;;;24.88;14.98;;;;;;;-4.44;100.00;101033.22;5153635;29;20035;-70
2022/12/13 06:30:45;;;;;;;26.35;16.48;;;;;;;-4.40;100.00;101028.91;5154486;29;20023;-70
2022/12/13 06:33:16;;;;;;;27.35;16.95;;;;;;;-4.35;100.00;101036.50;5151287;28;20031;-70
2022/12/13 06:35:47;;;;;;;25.15;15.85;;;;;;;-4.32;100.00;101029.59;5153316;28;20043;-70
2022/12/13 06:38:19;;;;;;;27.10;16.23;;;;;;;-4.25;100.00;101030.31;5149954;28;20086;-70
2022/12/13 06:40:50;;;;;;;30.65;19.40;;;;;;;-4.26;100.00;101026.06;5148917;29;20467;-70
2022/12/13 06:43:22;;;;;;;30.23;18.20;;;;;;;-4.16;100.00;101038.66;5133893;29;20051;-70
2022/12/13 06:45:53;;;;;;;31.13;18.23;;;;;;;-4.13;100.00;101042.00;5151059;28;20107;-70
2022/12/13 06:48:25;;;;;;;27.23;17.55;;;;;;;-4.10;100.00;101031.72;5152917;29;20104;-70
2022/12/13 06:51:03;;;;;;;28.67;17.77;;;;;;;-4.05;100.00;101035.88;5153175;29;20089;-70
2022/12/13 06:53:36;;;;;;;28.10;17.20;;;;;;;-4.12;100.00;101034.31;5151229;29;20031;-70
2022/12/13 06:56:10;;;;;;;29.90;18.20;;;;;;;-4.03;100.00;101023.03;5151743;28;20028;-70
2022/12/13 06:58:42;;;;;;;29.63;17.55;;;;;;;-4.11;100.00;101023.19;5152449;29;20034;-70
2022/12/13 07:01:16;;;;;;;28.77;17.85;;;;;;;-4.06;100.00;101023.94;5153289;29;20106;-70
2022/12/13 07:03:47;;;;;;;26.00;16.50;;;;;;;-4.10;100.00;101031.72;5151652;29;20046;-70
2022/12/13 07:06:20;;;;;;;31.98;18.88;;;;;;;-4.04;100.00;101026.47;5152399;28;20019;-70
2022/12/13 07:08:54;;;;;;;32.70;17.88;;;;;;;-4.02;100.00;101033.22;5143610;29;20050;-70
2022/12/13 07:11:29;;;;;;;30.42;17.70;;;;;;;-4.00;100.00;101028.09;5147695;29;20031;-70
2022/12/13 07:14:00;;;;;;;32.20;19.02;;;;;;;-4.01;100.00;101036.66;5152999;29;20295;-72
2022/12/13 07:16:32;;;;;;;31.23;18.63;;;;;;;-4.07;100.00;101031.66;5136072;29;20023;-70
2022/12/13 07:19:03;;;;;;;27.73;18.95;;;;;;;-4.01;100.00;101026.41;5151559;29;20094;-70
2022/12/13 07:21:35;;;;;;;28.95;17.75;;;;;;;-3.99;100.00;101019.53;5150414;29;20545;-69
2022/12/13 07:24:06;;;;;;;32.42;19.23;;;;;;;-3.97;100.00;101023.75;5152631;29;20469;-70
2022/12/13 07:26:38;;;;;;;33.67;19.25;;;;;;;-4.00;100.00;101022.97;5150503;28;20035;-71
2022/12/13 07:29:09;;;;;;;32.10;18.55;;;;;;;-4.00;100.00;101031.47;5153198;29;20031;-70
2022/12/13 07:31:40;;;;;;;33.75;19.10;;;;;;;-4.06;100.00;101015.41;5151645;29;20035;-71
2022/12/13 07:34:12;;;;;;;27.63;17.92;;;;;;;-4.09;100.00;101018.91;5153195;29;20792;-70
2022/12/13 07:36:43;;;;;;;32.00;19.77;;;;;;;-4.03;100.00;101023.03;5143303;29;20062;-70
2022/12/13 07:39:14;;;;;;;29.77;18.92;;;;;;;-4.05;100.00;101022.19;5153376;29;20481;-70
2022/12/13 07:41:45;;;;;;;31.98;18.98;;;;;;;-4.04;100.00;101034.16;5150158;29;20122;-70
2022/12/13 07:44:17;;;;;;;30.25;19.33;;;;;;;-4.00;100.00;101031.47;5149749;29;20392;-70
2022/12/13 07:46:48;;;;;;;32.10;20.35;;;;;;;-3.98;100.00;101032.31;5155034;28;20487;-70
2022/12/13 07:49:19;;;;;;;31.55;18.27;;;;;;;-4.05;100.00;101022.19;5157504;29;20034;-70
2022/12/13 07:51:51;;;;;;;32.47;19.60;;;;;;;-4.05;100.00;101014.53;5154236;29;20023;-70
2022/12/13 07:54:22;;;;;;;29.98;19.27;;;;;;;-3.98;100.00;101042.53;5157643;29;20051;-70
2022/12/13 07:56:53;;;;;;;34.40;19.50;;;;;;;-3.91;100.00;101045.78;5156664;28;20023;-70
2022/12/13 07:59:24;;;;;;;35.13;21.10;;;;;;;-3.92;100.00;101051.78;5156996;29;20030;-69
2022/12/13 08:01:56;;;;;;;32.55;19.77;;;;;;;-3.88;100.00;101039.78;5151945;29;20030;-70
2022/12/13 08:04:27;;;;;;;31.55;20.02;;;;;;;-3.87;100.00;101044.84;5149614;29;20089;-70
2022/12/13 08:06:58;;;;;;;32.70;20.25;;;;;;;-3.85;100.00;101032.03;5153656;28;20039;-72
2022/12/13 08:09:29;;;;;;;35.58;21.70;;;;;;;-3.92;100.00;101019.34;5157032;29;20042;-71
2022/12/13 08:12:01;;;;;;;34.55;21.48;;;;;;;-3.78;100.00;101043.81;5156738;29;20023;-73
2022/12/13 08:14:32;;;;;;;34.55;21.65;;;;;;;-3.78;100.00;101033.56;5139461;29;20031;-72
2022/12/13 08:17:03;;;;;;;36.97;24.63;;;;;;;-3.72;100.00;101038.53;5152823;28;20089;-72
2022/12/13 08:19:34;;;;;;;39.53;23.00;;;;;;;-3.70;100.00;101040.19;5157488;29;20042;-72
2022/12/13 08:22:06;;;;;;;35.15;22.58;;;;;;;-3.76;100.00;101019.84;5155122;29;20035;-72
2022/12/13 08:24:37;;;;;;;37.25;22.98;;;;;;;-3.60;100.00;101040.81;5156578;29;20030;-73
2022/12/13 08:27:09;;;;;;;37.53;23.45;;;;;;;-3.56;100.00;101046.69;5156711;28;20042;-72
2022/12/13 08:29:40;;;;;;;33.72;23.45;;;;;;;-3.54;100.00;101053.47;5150652;29;20031;-72
2022/12/13 08:32:12;;;;;;;36.72;23.08;;;;;;;-3.55;100.00;101040.72;5151727;29;20090;-73
2022/12/13 08:34:44;;;;;;;33.85;22.42;;;;;;;-3.45;100.00;101052.41;5154175;29;20027;-72
2022/12/13 08:37:16;;;;;;;38.25;23.52;;;;;;;-3.45;100.00;101058.41;5156652;28;20035;-72
2022/12/13 08:39:47;;;;;;;37.70;22.85;;;;;;;-3.38;100.00;101051.41;5154219;29;20106;-72
2022/12/13 08:42:18;;;;;;;35.03;21.55;;;;;;;-3.34;100.00;101039.38;5154665;29;20063;-72
2022/12/13 08:44:51;;;;;;;37.20;24.17;;;;;;;-3.29;100.00;101052.91;5155023;29;20020;-72
2022/12/13 08:47:24;;;;;;;35.17;21.65;;;;;;;-3.25;100.00;101054.53;5155334;28;20070;-72
2022/12/13 08:50:01;;;;;;;36.13;23.27;;;;;;;-3.22;100.00;101051.88;5154094;29;20035;-72
2022/12/13 08:52:34;;;;;;;35.58;23.15;;;;;;;-3.16;100.00;101053.44;5156300;29;20383;-72
2022/12/13 08:55:05;;;;;;;;;;;;;;;-2.76;100.00;101054.13;5154875;29;20404;-72
2022/12/13 08:57:38;;;;;;;35.08;21.65;;;;;;;-3.00;100.00;101065.81;5147331;29;19918;-73
2022/12/13 09:00:12;;;;;;;38.33;22.38;;;;;;;-2.96;100.00;101071.72;5155750;29;20086;-72
2022/12/13 09:02:44;;;;;;;34.80;22.17;;;;;;;-2.99;100.00;101062.41;5155454;29;20044;-72
2022/12/13 09:05:15;;;;;;;36.15;22.77;;;;;;;-2.89;100.00;101065.56;5155129;29;20063;-72
2022/12/13 09:07:46;;;;;;;33.80;21.63;;;;;;;-2.82;100.00;101063.69;5150292;28;20039;-72
2022/12/13 09:10:17;;;;;;;36.38;23.35;;;;;;;-2.79;100.00;101063.63;5138634;29;20023;-73
2022/12/13 09:12:50;;;;;;;32.58;21.42;;;;;;;-2.78;100.00;101061.00;5155511;29;20016;-71
2022/12/13 09:15:21;;;;;;;35.88;22.88;;;;;;;-2.66;100.00;101059.00;5153414;28;20015;-73
2022/12/13 09:17:53;;;;;;;39.60;23.95;;;;;;;-2.65;100.00;101056.41;5155902;29;20082;-71
2022/12/13 09:20:24;;;;;;;40.97;24.50;;;;;;;-2.62;100.00;101069.13;5155639;29;20026;-73
2022/12/13 09:22:56;;;;;;;38.15;23.52;;;;;;;-2.58;100.00;101063.03;5151699;29;20027;-72
2022/12/13 09:25:27;;;;;;;39.63;23.55;;;;;;;-2.59;100.00;101058.78;5144657;28;20082;-71
2022/12/13 09:28:00;;;;;;;36.67;22.88;;;;;;;-2.48;100.00;101055.94;5155139;29;20031;-71
2022/12/13 09:30:31;;;;;;;40.58;23.67;;;;;;;-2.41;100.00;101059.19;5154806;29;20399;-71
2022/12/13 09:33:03;;;;;;;36.17;23.67;;;;;;;-2.41;100.00;101057.47;5154392;29;20023;-71
2022/12/13 09:35:37;;;;;;;38.72;23.75;;;;;;;-2.35;100.00;101059.88;5154892;29;20023;-72
2022/12/13 09:38:08;;;;;;;37.75;22.73;;;;;;;-2.41;100.00;101052.31;5154943;28;20107;-72
2022/12/13 09:40:42;;;;;;;37.33;23.38;;;;;;;-2.35;100.00;101059.00;5150692;29;20755;-71
2022/12/13 09:43:22;;;;;;;38.83;24.75;;;;;;;-2.22;100.00;101050.09;5150014;29;20160;-72
2022/12/13 09:45:54;;;;;;;35.15;22.83;;;;;;;-2.19;100.00;101060.25;5141877;29;20022;-71
2022/12/13 09:48:26;;;;;;;35.95;22.58;;;;;;;-2.12;100.00;101061.78;5147676;29;20035;-71
2022/12/13 09:50:58;;;;;;;38.47;24.50;;;;;;;-2.13;100.00;101048.97;5143165;29;20038;-71
2022/12/13 09:53:29;;;;;;;38.42;23.55;;;;;;;-2.03;100.00;101066.63;5151644;29;20469;-74
2022/12/13 09:56:01;;;;;;;39.08;22.48;;;;;;;-1.98;100.00;101051.09;5150278;28;20027;-72
2022/12/13 09:58:33;;;;;;;35.95;23.25;;;;;;;-1.93;100.00;101053.50;5137753;29;20027;-72
2022/12/13 10:01:05;;;;;;;40.92;25.45;;;;;;;-1.88;100.00;101055.06;5153612;29;20063;-71
2022/12/13 10:03:42;;;;;;;38.08;24.90;;;;;;;-1.82;100.00;101049.75;5154129;29;20038;-72
2022/12/13 10:06:17;;;;;;;40.97;25.77;;;;;;;-1.77;100.00;101052.19;5153786;28;20034;-71
2022/12/13 10:08:56;;;;;;;41.95;26.25;;;;;;;-1.67;100.00;101051.00;5151839;28;20038;-71
2022/12/13 10:11:28;;;;;;;41.45;26.17;;;;;;;-1.72;100.00;101045.16;5140902;29;20133;-72
2022/12/13 10:14:08;;;;;;;39.15;24.85;;;;;;;-1.68;100.00;101026.19;5153387;29;20114;-72
2022/12/13 10:16:50;;;;;;;40.13;25.08;;;;;;;-1.51;100.00;101035.97;5146029;28;20039;-73
2022/12/13 10:19:42;;;;;;;41.67;25.58;;;;;;;-1.43;100.00;101026.28;5146862;29;20123;-72
2022/12/13 10:22:15;;;;;;;42.22;26.42;;;;;;;-1.54;100.00;101038.63;5153476;29;20042;-72
2022/12/13 10:24:59;;;;;;;41.75;26.58;;;;;;;-1.43;100.00;101041.69;5153101;29;20031;-72
2022/12/13 10:27:39;;;;;;;37.45;22.92;;;;;;;-1.44;100.00;101034.84;5149139;28;20501;-71
2022/12/13 10:30:16;;;;;;;41.05;25.65;;;;;;;-1.40;100.00;101026.19;5152305;29;20059;-72
2022/12/13 10:32:56;;;;;;;39.08;24.13;;;;;;;-1.43;100.00;101018.56;5153725;29;20035;-71
2022/12/13 10:35:39;;;;;;;38.92;24.23;;;;;;;-1.27;100.00;101013.75;5152246;28;20481;-72
2022/12/13 10:38:13;;;;;;;38.50;23.85;;;;;;;-1.27;100.00;101006.88;5152909;29;20456;-72
2022/12/13 10:40:47;;;;;;;39.50;24.35;;;;;;;-1.27;100.00;101012.03;5154033;29;20031;-71
2022/12/13 10:43:20;;;;;;;36.53;22.38;;;;;;;-1.22;100.00;101006.72;5153865;29;20078;-73
2022/12/13 10:46:00;;;;;;;40.97;22.73;;;;;;;-1.13;100.00;101016.72;5141882;28;20110;-72
2022/12/13 10:48:37;;;;;;;39.88;24.40;;;;;;;-1.09;100.00;101007.19;5153352;29;20372;-72
2022/12/13 10:51:12;;;;;;;36.20;23.23;;;;;;;-1.09;100.00;101010.59;5153956;29;20019;-73
2022/12/13 10:53:50;;;;;;;36.75;22.88;;;;;;;-0.97;100.00;100999.03;5152884;29;20075;-73
2022/12/13 10:56:33;;;;;;;37.40;23.52;;;;;;;-0.92;100.00;100986.84;5152158;28;20023;-71
2022/12/13 10:59:37;;;;;;;34.70;23.40;;;;;;;-0.60;100.00;100990.88;5154154;29;20027;-71
2022/12/13 11:02:32;;;;;;;40.10;23.27;;;;;;;-0.67;100.00;100971.41;5149785;29;20031;-73
2022/12/13 11:05:24;;;;;;;36.10;23.10;;;;;;;-0.47;100.00;100988.69;5152882;29;20023;-71
2022/12/13 11:08:11;;;;;;;39.28;23.30;;;;;;;-0.46;100.00;100966.34;5151394;29;20043;-72
2022/12/13 11:10:43;;;;;;;35.50;22.85;;;;;;;-0.62;100.00;100968.66;5151488;29;20098;-72
2022/12/13 11:13:32;;;;;;;37.22;22.60;;;;;;;-0.42;100.00;100971.31;5144509;28;20058;-71
2022/12/13 11:16:26;;;;;;;35.80;22.70;;;;;;;-0.28;100.00;100963.94;5153756;28;20030;-73
2022/12/13 11:19:06;;;;;;;33.95;22.60;;;;;;;-0.34;100.00;100964.19;5153122;29;20240;-72
2022/12/13 11:21:38;;;;;;;34.15;23.13;;;;;;;-0.41;100.00;100960.16;5150121;29;20048;-72
2022/12/13 11:24:21;;;;;;;34.03;23.15;;;;;;;-0.26;100.00;100966.47;5153536;29;20518;-72
2022/12/13 11:26:59;;;;;;;35.97;24.02;;;;;;;-0.29;100.00;100962.25;5152195;28;20035;-72
2022/12/13 11:29:54;;;;;;;35.83;22.00;;;;;;;-0.25;100.00;100966.38;5153245;29;20113;-72
2022/12/13 11:32:54;;;;;;;32.50;21.38;;;;;;;-0.07;100.00;100957.13;5153019;29;20062;-72
2022/12/13 11:35:47;;;;;;;32.22;22.02;;;;;;;-0.03;100.00;100955.28;5150887;28;20126;-72
2022/12/13 11:38:43;;;;;;;31.23;20.15;;;;;;;-0.03;100.00;100963.00;5145433;28;20171;-72
2022/12/13 11:41:26;;;;;;;32.25;20.55;;;;;;;-0.09;100.00;100955.50;5133839;29;20043;-73